Time;durP1;ratioP1;P1;durP2;ratioP2;P2;SDS_P1;SDS_P2;PMS_P1;PMS_P2;Temp;Humidity;BMP_temperature;BMP_pressure;BME280_temperature;BME280_humidity;BME280_pressure;Samples;Min_cycle;Max_cycle;Signal;HPM_P1;HPM_P2
2022/03/06 00:01:13;;;;;;;19.75;10.82;;;;;;;;;;4884505;29;20055;-70
2022/03/06 00:03:41;;;;;;;19.10;10.07;;;;;;;;;;4881264;29;20116;-70
2022/03/06 00:06:18;;;;;;;15.65;10.35;;;;;;;;;;4888692;29;20078;-70
2022/03/06 00:08:46;;;;;;;19.80;11.05;;;;;;;;;;4907358;29;20119;-70
2022/03/06 00:11:15;;;;;;;16.48;10.80;;;;;;;;;;4890159;29;20413;-70
2022/03/06 00:13:47;;;;;;;16.10;10.15;;;;;;;;;;4888567;29;20095;-70
2022/03/06 00:16:18;;;;;;;20.67;11.48;;;;;;;;;;4877738;29;20309;-70
2022/03/06 00:18:48;;;;;;;19.70;12.00;;;;;;;;;;4886645;29;20131;-70
2022/03/06 00:21:17;;;;;;;20.38;12.02;;;;;;;;;;4903358;29;20052;-70
2022/03/06 00:23:54;;;;;;;15.55;11.40;;;;;;;;;;4902547;29;20044;-70
2022/03/06 00:26:25;;;;;;;20.13;11.50;;;;;;;;;;4901985;29;20058;-70
2022/03/06 00:28:54;;;;;;;17.35;11.85;;;;;;;;;;4901228;29;20059;-70
2022/03/06 00:31:24;;;;;;;17.05;11.52;;;;;;;;;;4893986;29;20051;-70
2022/03/06 00:34:00;;;;;;;19.20;11.38;;;;;;;;;;4903675;29;20052;-70
2022/03/06 00:36:37;;;;;;;16.35;11.52;;;;;;;;;;4894721;29;20119;-70
2022/03/06 00:39:10;;;;;;;15.43;10.13;;;;;;;;;;4903481;29;20513;-69
2022/03/06 00:41:40;;;;;;;17.55;11.73;;;;;;;;;;4886038;29;20611;-69
2022/03/06 00:44:15;;;;;;;20.27;11.18;;;;;;;;;;4900084;29;20127;-70
2022/03/06 00:46:43;;;;;;;18.65;11.32;;;;;;;;;;4890521;29;20056;-70
2022/03/06 00:49:16;;;;;;;19.08;10.32;;;;;;;;;;4891636;29;20470;-70
2022/03/06 00:51:47;;;;;;;20.20;11.55;;;;;;;;;;4897701;29;20079;-70
2022/03/06 00:54:19;;;;;;;18.85;10.55;;;;;;;;;;4872031;29;20438;-70
2022/03/06 00:56:57;;;;;;;18.48;11.30;;;;;;;;;;4884851;29;20086;-70
2022/03/06 00:59:32;;;;;;;16.15;11.18;;;;;;;;;;4892903;29;20047;-70
2022/03/06 01:02:03;;;;;;;16.80;11.63;;;;;;;;;;4905414;29;21675;-70
2022/03/06 01:04:34;;;;;;;17.65;11.27;;;;;;;;;;4888351;29;20055;-70
2022/03/06 01:07:03;;;;;;;16.52;11.00;;;;;;;;;;4874481;29;20056;-70
2022/03/06 01:09:34;;;;;;;17.27;11.00;;;;;;;;;;4891584;29;20048;-70
2022/03/06 01:12:11;;;;;;;14.63;10.90;;;;;;;;;;4891029;29;20074;-70
2022/03/06 01:14:43;;;;;;;16.55;10.70;;;;;;;;;;4899406;29;20568;-70
2022/03/06 01:17:13;;;;;;;15.38;11.00;;;;;;;;;;4886449;29;20406;-70
2022/03/06 01:19:44;;;;;;;16.63;11.25;;;;;;;;;;4900383;29;20384;-70
2022/03/06 01:22:15;;;;;;;18.55;11.80;;;;;;;;;;4885260;29;20056;-70
2022/03/06 01:24:43;;;;;;;19.10;11.45;;;;;;;;;;4887785;29;20450;-70
2022/03/06 01:27:12;;;;;;;17.00;11.65;;;;;;;;;;4890215;29;20399;-70
2022/03/06 01:29:49;;;;;;;17.20;11.02;;;;;;;;;;4900807;29;20044;-70
2022/03/06 01:32:17;;;;;;;17.60;12.10;;;;;;;;;;4892753;29;20143;-70
2022/03/06 01:34:46;;;;;;;22.38;12.52;;;;;;;;;;4905312;29;20067;-70
2022/03/06 01:37:17;;;;;;;18.60;12.32;;;;;;;;;;4890148;29;20056;-70
2022/03/06 01:39:51;;;;;;;18.17;12.55;;;;;;;;;;4892257;29;20184;-70
2022/03/06 01:42:19;;;;;;;19.77;13.18;;;;;;;;;;4903567;29;20075;-70
2022/03/06 01:44:51;;;;;;;16.20;12.77;;;;;;;;;;4918243;29;20127;-70
2022/03/06 01:47:44;;;;;;;18.35;12.75;;;;;;;;;;4913363;29;20137;-70
2022/03/06 01:50:15;;;;;;;17.67;12.80;;;;;;;;;;4899579;29;20052;-70
2022/03/06 01:52:45;;;;;;;23.27;13.68;;;;;;;;;;4887736;29;20799;-70
2022/03/06 01:55:16;;;;;;;17.25;12.85;;;;;;;;;;4906991;29;20103;-70
2022/03/06 01:57:47;;;;;;;21.42;14.13;;;;;;;;;;4891070;29;20056;-70
2022/03/06 02:00:20;;;;;;;21.85;14.55;;;;;;;;;;4905635;29;20119;-68
2022/03/06 02:03:01;;;;;;;;;;;;;;;;;;4887140;29;20447;-68
2022/03/06 02:05:31;;;;;;;20.95;14.65;;;;;;;;;;4915936;29;19931;-68
2022/03/06 02:08:01;;;;;;;19.85;13.77;;;;;;;;;;4886310;29;20055;-69
2022/03/06 02:10:32;;;;;;;23.48;13.75;;;;;;;;;;4883067;29;20054;-69
2022/03/06 02:13:00;;;;;;;21.67;13.05;;;;;;;;;;4889759;29;20511;-69
2022/03/06 02:15:30;;;;;;;20.58;13.50;;;;;;;;;;4902157;29;20047;-69
2022/03/06 02:18:01;;;;;;;21.85;14.40;;;;;;;;;;4884050;29;20055;-69
2022/03/06 02:20:38;;;;;;;24.17;13.38;;;;;;;;;;4884049;29;20559;-69
2022/03/06 02:23:10;;;;;;;19.67;13.02;;;;;;;;;;4904562;29;20725;-69
2022/03/06 02:25:41;;;;;;;18.65;13.23;;;;;;;;;;4886390;29;20062;-69
2022/03/06 02:28:15;;;;;;;19.58;13.13;;;;;;;;;;4890475;29;20066;-69
2022/03/06 02:30:44;;;;;;;17.88;12.32;;;;;;;;;;4903946;29;20056;-69
2022/03/06 02:33:16;;;;;;;20.35;12.95;;;;;;;;;;4887406;29;20414;-69
2022/03/06 02:35:57;;;;;;;22.33;13.00;;;;;;;;;;4896528;29;20072;-69
2022/03/06 02:38:30;;;;;;;20.25;13.23;;;;;;;;;;4896685;29;20051;-69
2022/03/06 02:40:59;;;;;;;19.98;13.05;;;;;;;;;;4890068;29;20052;-69
2022/03/06 02:43:27;;;;;;;19.98;12.48;;;;;;;;;;4887374;29;20059;-69
2022/03/06 02:45:55;;;;;;;19.45;11.68;;;;;;;;;;4882056;29;21782;-69
2022/03/06 02:48:26;;;;;;;18.33;12.23;;;;;;;;;;4870210;29;20162;-69
2022/03/06 02:50:57;;;;;;;18.45;11.52;;;;;;;;;;4887995;29;20123;-69
2022/03/06 02:53:29;;;;;;;17.52;10.95;;;;;;;;;;4874001;29;20119;-69
2022/03/06 02:56:03;;;;;;;15.98;11.00;;;;;;;;;;4873834;29;20060;-69
2022/03/06 02:58:32;;;;;;;21.00;11.82;;;;;;;;;;4901962;29;20048;-69
2022/03/06 03:01:00;;;;;;;19.00;10.60;;;;;;;;;;4884795;29;20135;-69
2022/03/06 03:03:30;;;;;;;19.98;11.18;;;;;;;;;;4891007;29;20414;-69
2022/03/06 03:06:01;;;;;;;16.20;10.35;;;;;;;;;;4883422;29;20511;-69
2022/03/06 03:08:31;;;;;;;19.17;10.73;;;;;;;;;;4874611;29;21685;-70
2022/03/06 03:11:01;;;;;;;19.15;10.45;;;;;;;;;;4888631;29;20058;-69
2022/03/06 03:13:40;;;;;;;17.08;9.85;;;;;;;;;;4888997;29;20135;-69
2022/03/06 03:16:09;;;;;;;15.70;9.27;;;;;;;;;;4887737;29;20066;-69
2022/03/06 03:18:40;;;;;;;16.75;8.23;;;;;;;;;;4888456;29;20063;-69
2022/03/06 03:21:10;;;;;;;12.68;8.40;;;;;;;;;;4887593;29;20059;-69
2022/03/06 03:23:44;;;;;;;12.85;8.80;;;;;;;;;;4890528;29;20405;-69
2022/03/06 03:26:15;;;;;;;12.70;8.30;;;;;;;;;;4882687;29;20082;-69
2022/03/06 03:28:53;;;;;;;10.23;6.90;;;;;;;;;;4887644;29;20063;-69
2022/03/06 03:31:23;;;;;;;11.82;6.95;;;;;;;;;;4883195;29;20059;-69
2022/03/06 03:33:54;;;;;;;14.07;7.30;;;;;;;;;;4895704;29;20071;-69
2022/03/06 03:36:24;;;;;;;13.90;6.63;;;;;;;;;;4885132;29;20056;-69
2022/03/06 03:38:56;;;;;;;12.45;6.70;;;;;;;;;;4874877;29;20514;-69
2022/03/06 03:41:27;;;;;;;16.48;7.03;;;;;;;;;;4884595;29;20115;-69
2022/03/06 03:43:54;;;;;;;15.65;6.88;;;;;;;;;;4890173;29;20472;-69
2022/03/06 03:46:31;;;;;;;12.18;6.93;;;;;;;;;;4921502;29;20654;-69
2022/03/06 03:49:02;;;;;;;10.93;6.45;;;;;;;;;;4902718;29;20050;-69
2022/03/06 03:51:32;;;;;;;12.23;6.40;;;;;;;;;;4899488;29;20048;-69
2022/03/06 03:54:04;;;;;;;12.90;7.05;;;;;;;;;;4890837;29;20127;-69
2022/03/06 03:56:32;;;;;;;11.07;6.30;;;;;;;;;;4892291;29;20893;-69
2022/03/06 03:59:03;;;;;;;11.70;6.25;;;;;;;;;;4891313;29;20059;-68
2022/03/06 04:01:40;;;;;;;14.90;6.18;;;;;;;;;;4888164;29;20460;-68
2022/03/06 04:04:12;;;;;;;12.65;6.22;;;;;;;;;;4890192;29;20086;-68
2022/03/06 04:06:43;;;;;;;9.77;6.22;;;;;;;;;;4889630;29;20052;-68
2022/03/06 04:09:12;;;;;;;10.30;6.10;;;;;;;;;;4888975;29;20411;-69
2022/03/06 04:11:43;;;;;;;8.25;5.20;;;;;;;;;;4892040;29;20048;-69
2022/03/06 04:14:14;;;;;;;10.30;5.47;;;;;;;;;;4898932;29;20056;-69
2022/03/06 04:16:44;;;;;;;10.75;5.47;;;;;;;;;;4889160;29;20136;-69
2022/03/06 04:19:23;;;;;;;9.48;5.03;;;;;;;;;;4889545;29;20444;-69
2022/03/06 04:21:54;;;;;;;9.40;5.28;;;;;;;;;;4886211;29;20062;-69
2022/03/06 04:24:28;;;;;;;10.02;5.22;;;;;;;;;;4886590;29;20054;-69
2022/03/06 04:26:58;;;;;;;9.13;4.15;;;;;;;;;;4895706;29;20055;-69
2022/03/06 04:29:30;;;;;;;8.65;3.13;;;;;;;;;;4885680;29;20048;-69
2022/03/06 04:32:07;;;;;;;7.30;2.85;;;;;;;;;;4900996;29;20052;-69
2022/03/06 04:34:41;;;;;;;5.53;2.50;;;;;;;;;;4923759;29;20059;-69
2022/03/06 04:37:12;;;;;;;5.70;2.03;;;;;;;;;;4871108;29;20075;-69
2022/03/06 04:39:45;;;;;;;5.07;1.80;;;;;;;;;;4886865;29;20051;-69
2022/03/06 04:42:16;;;;;;;5.40;1.88;;;;;;;;;;4887094;29;20086;-70
2022/03/06 04:44:44;;;;;;;5.93;1.70;;;;;;;;;;4884809;29;20180;-68
2022/03/06 04:47:14;;;;;;;4.53;1.58;;;;;;;;;;4891853;29;20062;-69
2022/03/06 04:49:45;;;;;;;3.78;1.70;;;;;;;;;;4885660;29;20064;-69
2022/03/06 04:52:22;;;;;;;4.68;1.80;;;;;;;;;;4887138;29;20700;-69
2022/03/06 04:54:56;;;;;;;7.05;1.30;;;;;;;;;;4905049;29;20151;-69
2022/03/06 04:57:26;;;;;;;4.32;1.45;;;;;;;;;;4887936;29;20490;-69
2022/03/06 04:59:55;;;;;;;6.38;1.50;;;;;;;;;;4888503;29;20083;-69
2022/03/06 05:02:25;;;;;;;4.93;1.40;;;;;;;;;;4883889;29;20719;-69
2022/03/06 05:04:56;;;;;;;4.20;1.67;;;;;;;;;;4890799;29;20947;-69
2022/03/06 05:07:29;;;;;;;4.47;1.70;;;;;;;;;;4901327;29;20056;-69
2022/03/06 05:10:06;;;;;;;4.10;1.50;;;;;;;;;;4914993;29;20364;-69
2022/03/06 05:12:37;;;;;;;5.53;1.70;;;;;;;;;;4897584;29;20048;-69
2022/03/06 05:15:12;;;;;;;8.85;2.55;;;;;;;;;;4886782;29;20059;-69
2022/03/06 05:17:43;;;;;;;3.53;1.85;;;;;;;;;;4903696;29;20066;-69
2022/03/06 05:20:14;;;;;;;3.92;1.70;;;;;;;;;;4884247;29;20051;-69
2022/03/06 05:22:48;;;;;;;4.90;1.77;;;;;;;;;;4890301;29;20090;-69
2022/03/06 05:25:20;;;;;;;7.90;1.75;;;;;;;;;;4915944;29;20828;-69
2022/03/06 05:27:53;;;;;;;6.90;2.17;;;;;;;;;;4875334;29;20060;-69
2022/03/06 05:30:24;;;;;;;7.65;1.92;;;;;;;;;;4891919;29;20059;-69
2022/03/06 05:32:55;;;;;;;5.10;1.88;;;;;;;;;;4899667;29;20067;-69
2022/03/06 05:35:25;;;;;;;9.50;2.50;;;;;;;;;;4883791;29;20096;-69
2022/03/06 05:38:04;;;;;;;6.43;2.20;;;;;;;;;;4875961;29;20141;-69
2022/03/06 05:40:33;;;;;;;8.27;1.80;;;;;;;;;;4903125;29;20414;-69
2022/03/06 05:43:04;;;;;;;6.85;2.15;;;;;;;;;;4901168;29;20048;-69
2022/03/06 05:45:32;;;;;;;8.48;2.00;;;;;;;;;;4890112;29;20485;-70
2022/03/06 05:48:03;;;;;;;6.28;2.10;;;;;;;;;;4889262;29;20059;-69
2022/03/06 05:50:33;;;;;;;6.32;2.42;;;;;;;;;;4886817;29;20070;-69
2022/03/06 05:53:04;;;;;;;6.05;2.42;;;;;;;;;;4889870;29;20059;-69
2022/03/06 05:55:40;;;;;;;6.78;1.85;;;;;;;;;;4900479;29;20052;-69
2022/03/06 05:58:11;;;;;;;4.28;1.98;;;;;;;;;;4893166;29;20056;-69
2022/03/06 06:00:42;;;;;;;4.80;1.98;;;;;;;;;;4892728;29;20056;-69
2022/03/06 06:03:12;;;;;;;5.65;2.50;;;;;;;;;;4886468;29;20059;-69
2022/03/06 06:05:46;;;;;;;7.63;2.17;;;;;;;;;;4889516;29;20156;-69
2022/03/06 06:08:24;;;;;;;2.55;1.50;;;;;;;;;;4872100;29;20588;-69
2022/03/06 06:10:56;;;;;;;4.38;1.60;;;;;;;;;;4897119;29;20138;-69
2022/03/06 06:13:28;;;;;;;4.95;1.60;;;;;;;;;;4870934;29;20059;-69
2022/03/06 06:15:57;;;;;;;5.63;1.52;;;;;;;;;;4889061;29;20071;-68
2022/03/06 06:18:27;;;;;;;4.55;1.48;;;;;;;;;;4884668;29;20164;-69
2022/03/06 06:20:57;;;;;;;3.72;1.33;;;;;;;;;;4898504;29;20048;-69
2022/03/06 06:23:26;;;;;;;5.38;1.20;;;;;;;;;;4888726;29;20143;-69
2022/03/06 06:26:07;;;;;;;7.55;1.58;;;;;;;;;;4906714;29;20067;-69
2022/03/06 06:28:38;;;;;;;4.65;1.70;;;;;;;;;;4873356;29;20056;-69
2022/03/06 06:31:13;;;;;;;6.60;1.60;;;;;;;;;;4875971;29;20040;-69
2022/03/06 06:33:44;;;;;;;7.60;1.50;;;;;;;;;;4891210;29;20082;-69
2022/03/06 06:36:20;;;;;;;3.22;1.40;;;;;;;;;;4890742;29;20062;-69
2022/03/06 06:38:58;;;;;;;2.72;1.10;;;;;;;;;;4903493;29;20071;-69
2022/03/06 06:41:29;;;;;;;3.72;1.33;;;;;;;;;;4905478;29;20491;-69
2022/03/06 06:44:00;;;;;;;4.80;1.40;;;;;;;;;;4884179;29;20505;-69
2022/03/06 06:46:28;;;;;;;3.80;1.38;;;;;;;;;;4882875;29;20058;-69
2022/03/06 06:48:59;;;;;;;3.33;1.30;;;;;;;;;;4892606;29;20051;-69
2022/03/06 06:51:28;;;;;;;4.32;1.40;;;;;;;;;;4892013;29;20367;-69
2022/03/06 06:54:04;;;;;;;4.75;1.52;;;;;;;;;;4890268;29;20056;-69
2022/03/06 06:56:39;;;;;;;6.20;2.70;;;;;;;;;;4897621;29;20055;-69
2022/03/06 06:59:13;;;;;;;4.78;2.55;;;;;;;;;;4881681;29;20047;-68
2022/03/06 07:01:41;;;;;;;5.25;2.40;;;;;;;;;;4898838;29;20068;-69
2022/03/06 07:04:12;;;;;;;4.78;1.90;;;;;;;;;;4882724;29;20058;-69
2022/03/06 07:06:42;;;;;;;5.38;1.65;;;;;;;;;;4891016;29;20574;-69
2022/03/06 07:09:21;;;;;;;3.60;1.35;;;;;;;;;;4887602;29;20060;-69
2022/03/06 07:11:56;;;;;;;4.53;1.15;;;;;;;;;;4900725;29;20059;-69
2022/03/06 07:14:27;;;;;;;7.35;2.22;;;;;;;;;;4873696;29;20151;-69
2022/03/06 07:16:58;;;;;;;6.22;1.80;;;;;;;;;;4885607;29;20181;-69
2022/03/06 07:19:29;;;;;;;5.75;1.55;;;;;;;;;;4885933;29;20115;-69
2022/03/06 07:21:59;;;;;;;5.43;1.60;;;;;;;;;;4889835;29;20044;-69
2022/03/06 07:24:28;;;;;;;3.42;1.40;;;;;;;;;;4873457;29;20048;-69
2022/03/06 07:27:09;;;;;;;4.13;1.30;;;;;;;;;;4885268;29;20055;-69
2022/03/06 07:29:39;;;;;;;4.05;1.67;;;;;;;;;;4883114;29;20662;-68
2022/03/06 07:32:10;;;;;;;3.20;1.30;;;;;;;;;;4883297;29;20127;-68
2022/03/06 07:34:41;;;;;;;4.72;1.40;;;;;;;;;;4902952;29;20399;-68
2022/03/06 07:37:13;;;;;;;4.00;1.90;;;;;;;;;;4889266;29;20059;-68
2022/03/06 07:39:51;;;;;;;6.90;1.50;;;;;;;;;;4882289;29;20514;-68
2022/03/06 07:42:24;;;;;;;5.40;1.35;;;;;;;;;;4905667;29;20055;-68
2022/03/06 07:44:54;;;;;;;6.47;1.73;;;;;;;;;;4869941;29;20055;-69
2022/03/06 07:47:25;;;;;;;4.32;1.58;;;;;;;;;;4883491;29;20463;-69
2022/03/06 07:49:56;;;;;;;6.00;1.52;;;;;;;;;;4881197;29;20062;-69
2022/03/06 07:52:26;;;;;;;6.65;1.52;;;;;;;;;;4884188;29;20051;-69
2022/03/06 07:54:57;;;;;;;5.28;1.58;;;;;;;;;;4884843;29;20115;-69
2022/03/06 07:57:40;;;;;;;3.88;1.38;;;;;;;;;;4885229;29;20059;-69
2022/03/06 08:00:11;;;;;;;4.55;1.38;;;;;;;;;;4904838;29;20067;-69
2022/03/06 08:02:41;;;;;;;4.55;1.42;;;;;;;;;;4884149;29;20495;-69
2022/03/06 08:05:12;;;;;;;3.95;1.45;;;;;;;;;;4888887;29;20410;-69
2022/03/06 08:07:43;;;;;;;7.82;1.65;;;;;;;;;;4887704;29;20064;-69
2022/03/06 08:10:14;;;;;;;3.55;1.17;;;;;;;;;;4886156;29;20052;-69
2022/03/06 08:12:50;;;;;;;3.17;1.40;;;;;;;;;;4881310;29;20131;-69
2022/03/06 08:15:21;;;;;;;6.82;1.50;;;;;;;;;;4902520;29;20063;-69
2022/03/06 08:17:52;;;;;;;5.57;1.52;;;;;;;;;;4891858;29;20048;-69
2022/03/06 08:20:20;;;;;;;3.75;1.38;;;;;;;;;;4897480;29;20858;-69
2022/03/06 08:22:50;;;;;;;3.85;1.30;;;;;;;;;;4883067;29;20054;-69
2022/03/06 08:25:20;;;;;;;3.53;1.20;;;;;;;;;;4887764;29;20052;-69
2022/03/06 08:27:50;;;;;;;6.13;1.30;;;;;;;;;;4886477;29;20074;-69
2022/03/06 08:30:21;;;;;;;4.25;1.38;;;;;;;;;;4918486;29;20071;-69
2022/03/06 08:32:53;;;;;;;5.72;1.80;;;;;;;;;;4893593;29;20459;-69
2022/03/06 08:35:23;;;;;;;3.40;1.35;;;;;;;;;;4890165;29;20066;-69
2022/03/06 08:37:54;;;;;;;7.13;1.60;;;;;;;;;;4885243;29;20060;-69
2022/03/06 08:40:23;;;;;;;4.88;1.52;;;;;;;;;;4890114;29;20119;-69
2022/03/06 08:42:55;;;;;;;6.38;1.63;;;;;;;;;;4888425;29;20051;-69
2022/03/06 08:45:37;;;;;;;3.75;1.70;;;;;;;;;;4886089;29;21118;-68
2022/03/06 08:48:08;;;;;;;4.72;1.42;;;;;;;;;;4921634;29;20055;-69
2022/03/06 08:50:39;;;;;;;6.03;1.80;;;;;;;;;;4888082;29;20055;-69
2022/03/06 08:53:08;;;;;;;6.28;1.48;;;;;;;;;;4890198;29;20135;-69
2022/03/06 08:55:38;;;;;;;5.22;1.52;;;;;;;;;;4888050;29;20055;-69
2022/03/06 08:58:10;;;;;;;4.35;1.67;;;;;;;;;;4890076;29;20079;-69
2022/03/06 09:00:48;;;;;;;4.35;1.40;;;;;;;;;;4888430;29;21223;-69
2022/03/06 09:03:20;;;;;;;4.70;1.67;;;;;;;;;;4906318;29;20051;-69
2022/03/06 09:05:48;;;;;;;3.92;1.30;;;;;;;;;;4906606;29;20052;-69
2022/03/06 09:08:20;;;;;;;6.15;1.70;;;;;;;;;;4889039;29;20063;-69
2022/03/06 09:10:51;;;;;;;5.82;1.85;;;;;;;;;;4892501;29;20056;-69
2022/03/06 09:13:23;;;;;;;4.72;1.60;;;;;;;;;;4900687;29;20074;-69
2022/03/06 09:15:53;;;;;;;7.53;1.92;;;;;;;;;;4888688;29;20127;-69
2022/03/06 09:18:32;;;;;;;4.50;1.92;;;;;;;;;;4890928;29;20052;-69
2022/03/06 09:21:02;;;;;;;5.68;2.00;;;;;;;;;;4904464;29;20062;-69
2022/03/06 09:23:31;;;;;;;4.00;1.60;;;;;;;;;;4884926;29;20067;-69
2022/03/06 09:26:01;;;;;;;6.03;2.55;;;;;;;;;;4895815;29;20051;-69
2022/03/06 09:28:30;;;;;;;7.00;1.90;;;;;;;;;;4869965;29;20452;-70
2022/03/06 09:31:02;;;;;;;5.68;1.90;;;;;;;;;;4887584;29;20064;-68
2022/03/06 09:33:39;;;;;;;6.35;2.10;;;;;;;;;;4885465;29;20138;-68
2022/03/06 09:36:11;;;;;;;5.25;1.58;;;;;;;;;;4891317;29;20111;-68
2022/03/06 09:38:42;;;;;;;5.25;1.80;;;;;;;;;;4890617;29;20074;-68
2022/03/06 09:41:16;;;;;;;4.63;1.70;;;;;;;;;;4887952;29;20107;-68
2022/03/06 09:43:48;;;;;;;4.50;1.75;;;;;;;;;;4903948;29;20135;-68
2022/03/06 09:46:16;;;;;;;5.47;1.80;;;;;;;;;;4885758;29;20056;-69
2022/03/06 09:48:44;;;;;;;4.30;1.80;;;;;;;;;;4874989;29;20060;-69
2022/03/06 09:51:17;;;;;;;5.88;1.73;;;;;;;;;;4891499;29;20492;-69
2022/03/06 09:53:46;;;;;;;5.28;1.92;;;;;;;;;;4914884;29;20059;-69
2022/03/06 09:56:16;;;;;;;5.15;2.00;;;;;;;;;;4873128;29;20055;-69
2022/03/06 09:58:49;;;;;;;5.05;1.58;;;;;;;;;;4900384;29;20055;-69
2022/03/06 10:01:19;;;;;;;6.28;1.52;;;;;;;;;;4887445;29;20495;-69
2022/03/06 10:03:50;;;;;;;2.85;1.30;;;;;;;;;;4888270;29;20376;-69
2022/03/06 10:06:21;;;;;;;3.50;1.50;;;;;;;;;;4906967;29;20048;-69
2022/03/06 10:09:03;;;;;;;5.32;1.60;;;;;;;;;;4891093;29;20111;-69
2022/03/06 10:11:34;;;;;;;7.25;1.70;;;;;;;;;;4898145;29;20747;-69
2022/03/06 10:14:06;;;;;;;8.45;2.25;;;;;;;;;;4889035;29;20060;-69
2022/03/06 10:16:37;;;;;;;3.95;1.40;;;;;;;;;;4900990;29;20498;-69
2022/03/06 10:19:07;;;;;;;3.42;1.38;;;;;;;;;;4887545;29;20585;-69
2022/03/06 10:21:36;;;;;;;5.07;1.75;;;;;;;;;;4888620;29;20054;-69
2022/03/06 10:24:23;;;;;;;5.97;1.80;;;;;;;;;;4887287;29;20059;-69
2022/03/06 10:26:51;;;;;;;5.47;1.83;;;;;;;;;;4914133;29;20148;-69
2022/03/06 10:29:28;;;;;;;5.28;1.92;;;;;;;;;;4883542;29;20055;-69
2022/03/06 10:32:04;;;;;;;6.15;1.80;;;;;;;;;;4904227;29;20051;-69
2022/03/06 10:34:46;;;;;;;5.30;1.90;;;;;;;;;;4895865;29;20402;-69
2022/03/06 10:37:17;;;;;;;4.47;1.58;;;;;;;;;;4901782;29;20132;-69
2022/03/06 10:39:49;;;;;;;5.47;1.50;;;;;;;;;;4890152;29;20056;-69
2022/03/06 10:42:24;;;;;;;4.70;1.60;;;;;;;;;;4895992;29;20047;-69
2022/03/06 10:44:56;;;;;;;5.25;1.67;;;;;;;;;;4869135;29;20044;-67
2022/03/06 10:47:26;;;;;;;4.57;1.70;;;;;;;;;;4888839;29;20048;-67
2022/03/06 10:50:11;;;;;;;6.30;1.85;;;;;;;;;;4889530;29;20521;-67
2022/03/06 10:52:42;;;;;;;7.15;1.70;;;;;;;;;;4898903;29;20048;-67
2022/03/06 10:55:10;;;;;;;3.85;1.73;;;;;;;;;;4901497;29;20084;-67
2022/03/06 10:57:39;;;;;;;4.43;1.67;;;;;;;;;;4889570;29;20448;-67
2022/03/06 11:00:10;;;;;;;6.40;1.48;;;;;;;;;;4912482;29;20175;-66
2022/03/06 11:02:38;;;;;;;6.78;1.77;;;;;;;;;;4894289;29;20120;-67
2022/03/06 11:05:07;;;;;;;5.55;1.67;;;;;;;;;;4899389;29;20063;-67
2022/03/06 11:07:34;;;;;;;6.15;1.60;;;;;;;;;;4913964;29;20056;-67
2022/03/06 11:10:02;;;;;;;3.53;1.67;;;;;;;;;;4896468;29;20048;-69
2022/03/06 11:12:32;;;;;;;4.32;1.52;;;;;;;;;;4898653;29;20503;-70
2022/03/06 11:15:00;;;;;;;3.65;1.55;;;;;;;;;;4917410;29;20075;-69
2022/03/06 11:17:30;;;;;;;3.70;1.52;;;;;;;;;;4917505;29;20059;-69
2022/03/06 11:19:58;;;;;;;4.28;1.63;;;;;;;;;;4917885;29;20120;-69
2022/03/06 11:22:29;;;;;;;5.15;1.83;;;;;;;;;;4899388;29;20047;-69
2022/03/06 11:24:59;;;;;;;8.07;1.92;;;;;;;;;;4915058;29;20052;-69
2022/03/06 11:27:32;;;;;;;5.75;1.85;;;;;;;;;;4918361;29;20495;-69
2022/03/06 11:30:10;;;;;;;3.35;1.42;;;;;;;;;;4901004;29;20414;-69
2022/03/06 11:32:41;;;;;;;5.30;2.00;;;;;;;;;;4922362;29;21299;-69
2022/03/06 11:35:10;;;;;;;4.57;1.45;;;;;;;;;;4904328;29;20048;-69
2022/03/06 11:37:47;;;;;;;5.50;2.17;;;;;;;;;;4920749;29;20494;-69
2022/03/06 11:40:33;;;;;;;6.82;1.90;;;;;;;;;;4919561;29;20078;-70
2022/03/06 11:43:00;;;;;;;5.68;1.80;;;;;;;;;;4902971;29;20047;-69
2022/03/06 11:45:46;;;;;;;4.55;1.80;;;;;;;;;;4917435;29;20051;-69
2022/03/06 11:48:23;;;;;;;4.47;1.50;;;;;;;;;;4919735;29;20056;-69
2022/03/06 11:51:06;;;;;;;6.38;1.60;;;;;;;;;;4921879;29;20072;-67
2022/03/06 11:53:46;;;;;;;8.18;1.83;;;;;;;;;;4914568;29;20051;-66
2022/03/06 11:56:28;;;;;;;5.28;1.50;;;;;;;;;;4922407;29;20554;-67
2022/03/06 11:58:56;;;;;;;3.88;1.90;;;;;;;;;;4902898;29;20048;-67
2022/03/06 12:01:29;;;;;;;3.60;1.60;;;;;;;;;;4917066;29;20116;-67
2022/03/06 12:04:03;;;;;;;4.30;1.67;;;;;;;;;;4917800;29;20059;-69
2022/03/06 12:06:31;;;;;;;5.63;1.83;;;;;;;;;;4921933;29;20518;-69
2022/03/06 12:08:58;;;;;;;6.97;1.80;;;;;;;;;;4907174;29;20056;-69
2022/03/06 12:11:25;;;;;;;5.50;1.63;;;;;;;;;;4905195;29;20063;-69
2022/03/06 12:13:52;;;;;;;6.07;1.63;;;;;;;;;;4904657;29;20051;-70
2022/03/06 12:16:19;;;;;;;4.93;1.50;;;;;;;;;;4906551;29;20059;-70
2022/03/06 12:19:02;;;;;;;4.32;1.35;;;;;;;;;;4923785;29;20055;-70
2022/03/06 12:21:37;;;;;;;3.85;1.48;;;;;;;;;;4905891;29;20059;-70
2022/03/06 12:24:11;;;;;;;5.20;2.03;;;;;;;;;;4919692;29;20171;-70
2022/03/06 12:26:45;;;;;;;4.25;1.55;;;;;;;;;;4907835;29;20063;-70
2022/03/06 12:29:40;;;;;;;3.33;1.50;;;;;;;;;;4921004;29;20075;-70
2022/03/06 12:32:23;;;;;;;3.55;1.50;;;;;;;;;;4920876;29;21280;-71
2022/03/06 12:34:56;;;;;;;5.45;1.90;;;;;;;;;;4903209;29;20059;-70
2022/03/06 12:37:24;;;;;;;4.30;1.67;;;;;;;;;;4923294;29;20080;-70
2022/03/06 12:39:51;;;;;;;4.18;1.38;;;;;;;;;;4926641;29;20680;-70
2022/03/06 12:42:24;;;;;;;6.28;1.48;;;;;;;;;;4922222;29;20410;-70
2022/03/06 12:44:59;;;;;;;3.30;1.48;;;;;;;;;;4923691;29;20070;-71
2022/03/06 12:47:28;;;;;;;5.22;1.85;;;;;;;;;;4919029;29;20059;-70
2022/03/06 12:50:00;;;;;;;5.97;1.70;;;;;;;;;;4908098;29;20139;-70
2022/03/06 12:52:29;;;;;;;4.82;1.65;;;;;;;;;;4906328;29;20111;-70
2022/03/06 12:54:57;;;;;;;2.70;1.38;;;;;;;;;;4925134;29;20058;-70
2022/03/06 12:57:29;;;;;;;4.20;1.67;;;;;;;;;;4924092;29;20055;-70
2022/03/06 12:59:57;;;;;;;5.47;1.50;;;;;;;;;;4922624;29;20043;-70
2022/03/06 13:02:24;;;;;;;3.97;1.73;;;;;;;;;;4908514;29;20048;-70
2022/03/06 13:04:52;;;;;;;5.15;2.00;;;;;;;;;;4921439;29;20063;-68
2022/03/06 13:07:24;;;;;;;4.90;1.70;;;;;;;;;;4906021;29;20048;-67
2022/03/06 13:09:56;;;;;;;4.32;1.70;;;;;;;;;;4902051;29;20060;-67
2022/03/06 13:12:24;;;;;;;6.68;1.88;;;;;;;;;;4920871;29;20108;-67
2022/03/06 13:14:51;;;;;;;5.20;1.75;;;;;;;;;;4906972;29;20074;-67
2022/03/06 13:17:20;;;;;;;8.32;1.90;;;;;;;;;;4905758;29;20056;-67
2022/03/06 13:19:47;;;;;;;3.95;1.60;;;;;;;;;;4923336;29;20051;-67
2022/03/06 13:22:17;;;;;;;6.45;1.75;;;;;;;;;;4921006;29;20058;-67
2022/03/06 13:24:50;;;;;;;4.25;1.55;;;;;;;;;;4924403;29;20159;-67
2022/03/06 13:27:21;;;;;;;3.50;1.40;;;;;;;;;;4922166;29;20066;-67
2022/03/06 13:30:11;;;;;;;8.13;1.67;;;;;;;;;;4914651;29;20048;-67
2022/03/06 13:32:38;;;;;;;4.45;1.40;;;;;;;;;;4912100;29;20116;-67
2022/03/06 13:35:06;;;;;;;6.15;1.60;;;;;;;;;;4904811;29;20060;-67
2022/03/06 13:37:35;;;;;;;5.78;1.70;;;;;;;;;;4903214;29;20048;-68
2022/03/06 13:40:10;;;;;;;6.05;1.70;;;;;;;;;;4924436;29;20086;-67
2022/03/06 13:42:37;;;;;;;3.67;1.30;;;;;;;;;;4923612;29;20146;-67
2022/03/06 13:45:06;;;;;;;6.28;1.92;;;;;;;;;;4904360;29;20063;-67
2022/03/06 13:47:43;;;;;;;5.38;1.58;;;;;;;;;;4921815;29;20088;-67
2022/03/06 13:50:11;;;;;;;7.25;1.80;;;;;;;;;;4920928;29;21276;-67
2022/03/06 13:52:38;;;;;;;4.28;1.60;;;;;;;;;;4921040;29;20107;-67
2022/03/06 13:55:10;;;;;;;6.75;1.58;;;;;;;;;;4926736;29;20502;-67
2022/03/06 13:57:37;;;;;;;4.50;1.48;;;;;;;;;;4919916;29;20096;-67
2022/03/06 14:00:31;;;;;;;5.88;1.60;;;;;;;;;;4922795;29;20043;-68
2022/03/06 14:03:02;;;;;;;3.72;1.50;;;;;;;;;;4873164;29;20054;-67
2022/03/06 14:05:30;;;;;;;7.22;2.05;;;;;;;;;;4903501;29;20498;-67
2022/03/06 14:07:57;;;;;;;5.30;1.52;;;;;;;;;;4917783;29;20538;-67
2022/03/06 14:10:42;;;;;;;4.95;1.90;;;;;;;;;;4919097;29;20047;-67
2022/03/06 14:13:26;;;;;;;5.88;1.55;;;;;;;;;;4921539;29;20052;-67
2022/03/06 14:15:53;;;;;;;6.30;1.95;;;;;;;;;;4917822;29;20101;-67
2022/03/06 14:18:37;;;;;;;5.38;1.40;;;;;;;;;;4919057;29;20889;-69
2022/03/06 14:21:08;;;;;;;4.68;1.60;;;;;;;;;;4904842;29;20051;-70
2022/03/06 14:23:35;;;;;;;5.47;1.80;;;;;;;;;;4899732;29;20467;-70
2022/03/06 14:26:04;;;;;;;5.60;1.50;;;;;;;;;;4902554;29;20063;-70
2022/03/06 14:28:32;;;;;;;4.35;1.70;;;;;;;;;;4900869;29;20059;-68
2022/03/06 14:30:59;;;;;;;7.38;1.92;;;;;;;;;;4902031;29;20056;-67
2022/03/06 14:33:28;;;;;;;7.93;1.88;;;;;;;;;;4919130;29;20109;-67
2022/03/06 14:35:56;;;;;;;6.75;2.03;;;;;;;;;;4923512;29;20522;-67
2022/03/06 14:38:23;;;;;;;6.82;2.20;;;;;;;;;;4899565;29;20119;-67
2022/03/06 14:40:50;;;;;;;4.72;1.50;;;;;;;;;;4919824;29;20056;-67
2022/03/06 14:43:20;;;;;;;10.27;2.63;;;;;;;;;;4892650;29;20060;-67
2022/03/06 14:45:47;;;;;;;7.72;1.77;;;;;;;;;;4916555;29;20074;-67
2022/03/06 14:48:14;;;;;;;7.18;1.85;;;;;;;;;;4903249;29;20066;-67
2022/03/06 14:50:42;;;;;;;5.95;1.75;;;;;;;;;;4901391;29;20052;-67
2022/03/06 14:53:09;;;;;;;9.13;1.80;;;;;;;;;;4920008;29;20044;-67
2022/03/06 14:55:36;;;;;;;8.27;1.83;;;;;;;;;;4918202;29;20052;-67
2022/03/06 14:58:03;;;;;;;7.57;1.52;;;;;;;;;;4904291;29;20087;-67
2022/03/06 15:00:32;;;;;;;6.55;1.88;;;;;;;;;;4902368;29;20060;-68
2022/03/06 15:02:59;;;;;;;6.65;2.05;;;;;;;;;;4920723;29;20056;-68